createdAt,value
2018-02-23T00:00:22.643Z,25.33
2018-02-23T00:01:11.693Z,26.52
2018-02-23T00:02:01.029Z,26.33
2018-02-23T00:02:50.098Z,25.83
2018-02-23T00:03:39.150Z,25.67
2018-02-23T00:04:28.328Z,26.60
2018-02-23T00:05:17.393Z,28.87
2018-02-23T00:06:06.441Z,26.80
2018-02-23T00:06:55.528Z,30.25
2018-02-23T00:07:47.450Z,30.25
2018-02-23T00:08:36.509Z,33.55
2018-02-23T00:09:25.595Z,31.42
2018-02-23T00:10:14.718Z,31.98
2018-02-23T00:11:03.759Z,32.33
2018-02-23T00:11:52.869Z,31.45
2018-02-23T00:12:41.981Z,32.05
2018-02-23T00:13:31.024Z,30.90
2018-02-23T00:14:20.093Z,32.08
2018-02-23T00:15:09.176Z,31.05
2018-02-23T00:15:58.252Z,30.62
2018-02-23T00:16:47.289Z,30.83
2018-02-23T00:17:36.330Z,31.40
2018-02-23T00:18:25.381Z,30.23
2018-02-23T00:19:14.427Z,31.80
2018-02-23T00:20:03.522Z,30.67
2018-02-23T00:20:52.568Z,29.52
2018-02-23T00:21:41.962Z,30.33
2018-02-23T00:22:42.268Z,29.67
2018-02-23T00:23:31.315Z,30.65
2018-02-23T00:24:20.381Z,29.63
2018-02-23T00:25:09.427Z,28.60
2018-02-23T00:25:58.493Z,30.23
2018-02-23T00:26:47.572Z,28.40
2018-02-23T00:27:36.614Z,28.73
2018-02-23T00:28:25.684Z,29.40
2018-02-23T00:29:14.734Z,27.08
2018-02-23T00:30:03.804Z,28.12
2018-02-23T00:30:52.860Z,28.15
2018-02-23T00:31:41.899Z,27.77
2018-02-23T00:32:31.028Z,28.67
2018-02-23T00:33:20.071Z,28.87
2018-02-23T00:34:09.122Z,29.08
2018-02-23T00:34:58.168Z,29.40
2018-02-23T00:35:47.286Z,30.17
2018-02-23T00:36:36.318Z,29.92
2018-02-23T00:37:25.372Z,32.53
2018-02-23T00:38:14.495Z,34.25
2018-02-23T00:39:03.573Z,31.90
2018-02-23T00:39:52.610Z,34.47
2018-02-23T00:40:41.697Z,31.80
2018-02-23T00:41:30.738Z,28.12
2018-02-23T00:42:19.793Z,30.33
2018-02-23T00:43:08.895Z,28.15
2018-02-23T00:43:58.156Z,28.05
2018-02-23T00:44:48.176Z,27.62
2018-02-23T00:45:37.231Z,25.83
2018-02-23T00:46:26.282Z,29.52
2018-02-23T00:47:15.316Z,29.52
2018-02-23T00:48:04.432Z,27.98
2018-02-23T00:48:53.487Z,28.55
2018-02-23T00:49:42.535Z,29.45
2018-02-23T00:50:31.610Z,26.52
2018-02-23T00:51:20.694Z,26.37
2018-02-23T00:52:09.753Z,27.80
2018-02-23T00:52:58.802Z,26.23
2018-02-23T00:53:47.998Z,26.62
2018-02-23T00:54:37.046Z,25.25
2018-02-23T00:55:26.103Z,24.80
2018-02-23T00:56:15.146Z,25.88
2018-02-23T00:57:04.200Z,26.95
2018-02-23T00:57:53.246Z,25.25
2018-02-23T00:58:42.303Z,25.95
2018-02-23T00:59:31.564Z,27.23
2018-02-23T01:00:20.647Z,25.45
2018-02-23T01:01:09.726Z,26.75
2018-02-23T01:01:58.766Z,24.48
2018-02-23T01:02:47.801Z,25.25
2018-02-23T01:03:36.834Z,25.33
2018-02-23T01:04:25.890Z,24.60
2018-02-23T01:05:14.934Z,23.12
2018-02-23T01:06:04.029Z,23.83
2018-02-23T01:06:53.076Z,23.05
2018-02-23T01:07:42.130Z,23.12
2018-02-23T01:08:31.163Z,22.37
2018-02-23T01:09:20.222Z,22.02
2018-02-23T01:10:09.263Z,22.90
2018-02-23T01:10:58.312Z,22.90
2018-02-23T01:11:47.415Z,22.02
2018-02-23T01:12:36.474Z,22.15
2018-02-23T01:13:25.556Z,23.48
2018-02-23T01:14:14.635Z,21.83
2018-02-23T01:15:03.814Z,24.42
2018-02-23T01:15:52.860Z,23.52
2018-02-23T01:16:41.902Z,23.38
2018-02-23T01:17:30.965Z,23.17
2018-02-23T01:18:20.046Z,23.17
2018-02-23T01:19:09.097Z,22.40
2018-02-23T01:19:58.175Z,22.65
2018-02-23T01:20:47.266Z,22.58
2018-02-23T01:21:36.324Z,23.52
2018-02-23T01:22:25.782Z,23.05
2018-02-23T01:23:14.821Z,23.05
2018-02-23T01:24:03.857Z,23.48
2018-02-23T01:24:52.920Z,23.40
2018-02-23T01:25:41.988Z,23.80
2018-02-23T01:26:34.110Z,22.37
2018-02-23T01:27:23.139Z,22.23
2018-02-23T01:28:12.192Z,22.05
2018-02-23T01:29:01.239Z,24.50
2018-02-23T01:29:50.286Z,24.35
2018-02-23T01:30:40.262Z,22.85
2018-02-23T01:31:29.312Z,23.70
2018-02-23T01:32:18.408Z,24.15
2018-02-23T01:33:07.510Z,23.05
2018-02-23T01:33:56.599Z,24.63
2018-02-23T01:34:45.674Z,25.08
2018-02-23T01:35:34.844Z,24.48
2018-02-23T01:36:23.891Z,24.48
2018-02-23T01:37:12.935Z,24.20
2018-02-23T01:38:01.988Z,22.80
2018-02-23T01:38:51.026Z,24.85
2018-02-23T01:39:40.062Z,23.38
2018-02-23T01:40:29.109Z,23.48
2018-02-23T01:41:18.219Z,24.90
2018-02-23T01:42:07.267Z,23.77
2018-02-23T01:42:56.316Z,24.25
2018-02-23T01:43:45.371Z,23.23
2018-02-23T01:44:34.420Z,24.87
2018-02-23T01:45:23.470Z,23.62
2018-02-23T01:46:12.526Z,22.70
2018-02-23T01:47:01.624Z,22.95
2018-02-23T01:47:50.687Z,23.45
2018-02-23T01:48:39.740Z,23.70
2018-02-23T01:49:28.779Z,22.98
2018-02-23T01:50:17.811Z,23.08
2018-02-23T01:51:06.851Z,22.80
2018-02-23T01:51:55.898Z,24.35
2018-02-23T01:52:45.214Z,22.23
2018-02-23T01:53:34.259Z,23.45
2018-02-23T01:54:23.309Z,22.13
2018-02-23T01:55:12.346Z,22.15
2018-02-23T01:56:01.448Z,22.75
2018-02-23T01:56:50.516Z,21.77
2018-02-23T01:57:39.616Z,21.75
2018-02-23T01:58:28.685Z,21.73
2018-02-23T01:59:17.772Z,22.52
2018-02-23T02:00:06.843Z,22.08
2018-02-23T02:00:55.925Z,21.87
2018-02-23T02:01:45.094Z,22.35
2018-02-23T02:02:34.140Z,22.67
2018-02-23T02:03:23.205Z,23.05
2018-02-23T02:04:12.247Z,23.48
2018-02-23T02:05:01.288Z,23.65
2018-02-23T02:05:50.333Z,23.60
2018-02-23T02:06:39.405Z,23.90
2018-02-23T02:07:28.497Z,23.75
2018-02-23T02:08:17.549Z,23.08
2018-02-23T02:09:06.616Z,25.05
2018-02-23T02:09:55.663Z,23.38
2018-02-23T02:10:44.712Z,22.27
2018-02-23T02:11:33.782Z,22.08
2018-02-23T02:12:22.828Z,23.80
2018-02-23T02:13:12.206Z,22.10
2018-02-23T02:14:01.245Z,21.50
2018-02-23T02:14:50.305Z,21.98
2018-02-23T02:15:39.387Z,21.62
2018-02-23T02:16:28.427Z,21.75
2018-02-23T02:17:17.490Z,20.92
2018-02-23T02:18:06.538Z,21.85
2018-02-23T02:18:55.598Z,21.73
2018-02-23T02:19:44.654Z,23.42
2018-02-23T02:20:33.732Z,22.08
2018-02-23T02:21:22.887Z,21.02
2018-02-23T02:22:11.981Z,21.05
2018-02-23T02:23:01.035Z,20.00
2018-02-23T02:23:50.084Z,21.33
2018-02-23T02:24:39.137Z,21.02
2018-02-23T02:25:28.184Z,20.40
2018-02-23T02:26:17.247Z,21.20
2018-02-23T02:27:06.372Z,21.55
2018-02-23T02:27:55.432Z,20.27
2018-02-23T02:28:44.489Z,21.75
2018-02-23T02:29:33.532Z,21.25
2018-02-23T02:30:25.104Z,21.08
2018-02-23T02:31:14.152Z,20.60
2018-02-23T02:32:03.192Z,20.33
2018-02-23T02:32:52.466Z,20.05
2018-02-23T02:33:41.523Z,20.50
2018-02-23T02:34:30.630Z,19.92
2018-02-23T02:35:19.682Z,19.37
2018-02-23T02:36:08.751Z,20.83
2018-02-23T02:36:57.801Z,19.92
2018-02-23T02:37:46.849Z,19.73
2018-02-23T02:38:35.938Z,19.77
2018-02-23T02:39:24.989Z,21.20
2018-02-23T02:40:14.106Z,21.62
2018-02-23T02:41:03.176Z,20.50
2018-02-23T02:41:52.243Z,21.25
2018-02-23T02:42:41.364Z,20.55
2018-02-23T02:43:30.413Z,20.50
2018-02-23T02:44:19.530Z,21.10
2018-02-23T02:45:08.585Z,20.42
2018-02-23T02:45:57.638Z,20.52
2018-02-23T02:46:46.717Z,21.80
2018-02-23T02:47:35.783Z,22.60
2018-02-23T02:48:25.190Z,24.05
2018-02-23T02:49:14.236Z,20.30
2018-02-23T02:50:03.293Z,21.65
2018-02-23T02:50:52.351Z,20.85
2018-02-23T02:51:41.411Z,20.35
2018-02-23T02:52:30.541Z,19.27
2018-02-23T02:53:19.602Z,20.35
2018-02-23T02:54:08.657Z,21.23
2018-02-23T02:54:57.704Z,20.50
2018-02-23T02:55:46.749Z,20.08
2018-02-23T02:56:35.794Z,20.05
2018-02-23T02:57:24.840Z,21.67
2018-02-23T02:58:13.969Z,18.12
2018-02-23T02:59:03.017Z,17.92
2018-02-23T02:59:52.074Z,17.40
2018-02-23T03:00:41.112Z,17.27
2018-02-23T03:01:30.165Z,17.02
2018-02-23T03:02:19.242Z,17.37
2018-02-23T03:03:08.294Z,16.95
2018-02-23T03:03:57.581Z,16.75
2018-02-23T03:04:46.631Z,15.68
2018-02-23T03:05:35.729Z,16.90
2018-02-23T03:06:24.738Z,16.30
2018-02-23T03:07:13.797Z,16.58
2018-02-23T03:08:02.854Z,16.55
2018-02-23T03:08:51.915Z,16.40
2018-02-23T03:09:41.029Z,16.05
2018-02-23T03:10:30.089Z,16.85
2018-02-23T03:11:19.129Z,16.60
2018-02-23T03:12:08.172Z,16.50
2018-02-23T03:12:57.229Z,14.93
2018-02-23T03:13:46.365Z,16.27
2018-02-23T03:14:38.109Z,16.10
2018-02-23T03:15:27.152Z,16.20
2018-02-23T03:16:16.202Z,16.87
2018-02-23T03:17:05.251Z,15.70
2018-02-23T03:17:54.306Z,15.98
2018-02-23T03:18:43.360Z,15.70
2018-02-23T03:19:32.705Z,14.87
2018-02-23T03:20:21.745Z,15.68
2018-02-23T03:21:10.788Z,16.42
2018-02-23T03:21:59.835Z,15.05
2018-02-23T03:22:48.931Z,14.95
2018-02-23T03:23:38.008Z,16.27
2018-02-23T03:24:27.077Z,16.52
2018-02-23T03:25:16.132Z,15.88
2018-02-23T03:26:05.189Z,16.45
2018-02-23T03:26:54.236Z,18.62
2018-02-23T03:27:43.289Z,20.70
2018-02-23T03:28:32.390Z,18.80
2018-02-23T03:29:21.441Z,17.37
2018-02-23T03:30:10.498Z,16.30
2018-02-23T03:31:01.485Z,16.65
2018-02-23T03:31:50.837Z,15.95
2018-02-23T03:32:39.933Z,18.25
2018-02-23T03:33:28.985Z,17.42
2018-02-23T03:34:18.130Z,18.87
2018-02-23T03:35:07.173Z,19.30
2018-02-23T03:35:56.219Z,17.98
2018-02-23T03:36:45.259Z,17.77
2018-02-23T03:37:34.314Z,17.48
2018-02-23T03:38:23.374Z,16.35
2018-02-23T03:39:12.420Z,17.60
2018-02-23T03:40:01.491Z,18.05
2018-02-23T03:40:50.550Z,16.48
2018-02-23T03:41:39.636Z,17.85
2018-02-23T03:42:28.709Z,17.15
2018-02-23T03:43:17.756Z,18.02
2018-02-23T03:44:06.798Z,18.52
2018-02-23T03:44:56.920Z,18.67
2018-02-23T03:45:46.008Z,17.62
2018-02-23T03:46:35.060Z,17.70
2018-02-23T03:47:24.146Z,18.05
2018-02-23T03:48:13.191Z,19.02
2018-02-23T03:49:02.240Z,17.50
2018-02-23T03:49:51.284Z,18.52
2018-02-23T03:50:40.322Z,19.73
2018-02-23T03:51:29.539Z,18.60
2018-02-23T03:52:18.634Z,18.30
2018-02-23T03:53:07.666Z,18.55
2018-02-23T03:53:56.716Z,19.62
2018-02-23T03:54:45.780Z,19.95
2018-02-23T03:55:34.831Z,22.08
2018-02-23T03:56:23.867Z,22.62
2018-02-23T03:57:13.025Z,24.80
2018-02-23T03:58:02.084Z,35.25
2018-02-23T03:58:51.145Z,25.33
2018-02-23T03:59:40.191Z,28.35
2018-02-23T04:00:29.234Z,27.65
2018-02-23T04:01:18.709Z,26.02
2018-02-23T04:02:07.761Z,27.13
2018-02-23T04:02:56.838Z,30.67
2018-02-23T04:03:45.888Z,29.80
2018-02-23T04:04:34.920Z,30.12
2018-02-23T04:05:23.961Z,32.50
2018-02-23T04:06:13.013Z,34.83
2018-02-23T04:07:02.066Z,32.85
2018-02-23T04:07:51.107Z,33.58
2018-02-23T04:08:40.386Z,38.35
2018-02-23T04:09:29.444Z,36.05
2018-02-23T04:10:18.493Z,38.13
2018-02-23T04:11:07.550Z,34.42
2018-02-23T04:11:56.615Z,34.10
2018-02-23T04:12:45.654Z,29.63
2018-02-23T04:13:34.696Z,26.20
2018-02-23T04:14:23.755Z,21.80
2018-02-23T04:15:12.809Z,24.23
2018-02-23T04:16:01.843Z,21.48
2018-02-23T04:16:50.899Z,21.20
2018-02-23T04:17:39.995Z,20.00
2018-02-23T04:18:29.051Z,21.98
2018-02-23T04:19:18.129Z,23.30
2018-02-23T04:20:07.167Z,24.25
2018-02-23T04:20:56.299Z,23.70
2018-02-23T04:21:45.351Z,24.90
2018-02-23T04:22:34.554Z,24.27
2018-02-23T04:23:23.592Z,28.05
2018-02-23T04:24:12.646Z,25.23
2018-02-23T04:25:01.693Z,21.05
2018-02-23T04:25:50.736Z,21.33
2018-02-23T04:26:39.855Z,20.58
2018-02-23T04:27:28.907Z,20.02
2018-02-23T04:28:17.951Z,19.23
2018-02-23T04:29:06.993Z,20.05
2018-02-23T04:29:56.036Z,36.72
2018-02-23T04:30:45.093Z,42.90
2018-02-23T04:31:34.181Z,45.20
2018-02-23T04:32:23.683Z,39.03
2018-02-23T04:33:12.714Z,41.85
2018-02-23T04:34:01.746Z,44.13
2018-02-23T04:34:50.860Z,45.03
2018-02-23T04:35:39.928Z,45.75
2018-02-23T04:36:28.970Z,46.03
2018-02-23T04:37:18.012Z,49.22
2018-02-23T04:38:07.077Z,47.85
2018-02-23T04:38:56.218Z,44.40
2018-02-23T04:39:45.284Z,42.75
2018-02-23T04:40:34.362Z,37.03
2018-02-23T04:41:23.424Z,36.92
2018-02-23T04:42:12.475Z,32.30
2018-02-23T04:43:01.503Z,28.92
2018-02-23T04:43:50.563Z,25.02
2018-02-23T04:44:39.654Z,24.77
2018-02-23T04:45:28.695Z,24.63
2018-02-23T04:46:17.748Z,22.33
2018-02-23T04:47:06.927Z,21.87
2018-02-23T04:47:55.969Z,22.92
2018-02-23T04:48:45.036Z,25.50
2018-02-23T04:49:34.242Z,27.35
2018-02-23T04:50:23.320Z,29.63
2018-02-23T04:51:12.374Z,61.90
2018-02-23T04:52:01.425Z,97.75
2018-02-23T04:52:50.474Z,81.00
2018-02-23T04:53:39.814Z,30.58
2018-02-23T04:54:28.872Z,32.88
2018-02-23T04:55:18.280Z,32.30
2018-02-23T04:56:07.377Z,28.08
2018-02-23T04:56:56.462Z,24.73
2018-02-23T04:57:45.513Z,25.25
2018-02-23T04:58:34.551Z,26.98
2018-02-23T04:59:23.604Z,25.50
2018-02-23T05:00:12.697Z,24.60
2018-02-23T05:01:01.803Z,24.63
2018-02-23T05:01:50.860Z,24.85
2018-02-23T05:02:39.932Z,22.48
2018-02-23T05:03:31.970Z,23.90
2018-02-23T05:04:21.006Z,21.05
2018-02-23T05:05:10.143Z,21.55
2018-02-23T05:05:59.183Z,22.90
2018-02-23T05:06:48.225Z,22.27
2018-02-23T05:07:37.277Z,21.05
2018-02-23T05:08:26.358Z,22.65
2018-02-23T05:09:15.405Z,30.58
2018-02-23T05:10:04.506Z,28.25
2018-02-23T05:10:53.561Z,26.55
2018-02-23T05:11:42.798Z,26.02
2018-02-23T05:12:31.856Z,26.75
2018-02-23T05:13:20.917Z,26.08
2018-02-23T05:14:09.963Z,25.27
2018-02-23T05:14:59.006Z,24.80
2018-02-23T05:15:48.250Z,25.45
2018-02-23T05:16:37.303Z,26.08
2018-02-23T05:17:26.349Z,25.42
2018-02-23T05:18:15.484Z,27.58
2018-02-23T05:19:04.642Z,27.65
2018-02-23T05:19:53.711Z,27.77
2018-02-23T05:20:42.784Z,25.85
2018-02-23T05:21:32.145Z,27.13
2018-02-23T05:22:21.203Z,27.10
2018-02-23T05:23:10.258Z,27.55
2018-02-23T05:23:59.340Z,31.17
2018-02-23T05:24:48.433Z,34.42
2018-02-23T05:25:37.484Z,40.05
2018-02-23T05:26:26.547Z,47.50
2018-02-23T05:27:18.780Z,52.62
2018-02-23T05:28:08.006Z,54.83
2018-02-23T05:28:57.154Z,52.53
2018-02-23T05:29:46.232Z,47.08
2018-02-23T05:30:35.421Z,48.05
2018-02-23T05:31:24.659Z,50.17
2018-02-23T05:32:13.700Z,48.42
2018-02-23T05:34:29.739Z,44.53
2018-02-23T05:35:18.798Z,42.08
2018-02-23T05:36:07.852Z,52.25
2018-02-23T05:36:57.089Z,92.18
2018-02-23T05:37:46.129Z,98.82
2018-02-23T05:38:35.207Z,84.28
2018-02-23T05:39:24.278Z,78.50
2018-02-23T05:40:13.344Z,71.20
2018-02-23T05:41:02.411Z,71.95
2018-02-23T05:41:51.509Z,65.45
2018-02-23T05:42:41.222Z,67.93
2018-02-23T05:43:30.300Z,72.90
2018-02-23T05:44:19.833Z,71.10
2018-02-23T05:45:08.911Z,72.60
2018-02-23T05:45:57.955Z,65.32
2018-02-23T05:46:47.049Z,63.20
2018-02-23T05:47:36.130Z,64.35
2018-02-23T05:48:25.280Z,58.35
2018-02-23T05:49:14.344Z,56.40
2018-02-23T05:50:03.415Z,55.17
2018-02-23T05:50:52.475Z,54.78
2018-02-23T05:51:41.609Z,53.13
2018-02-23T05:52:30.670Z,51.30
2018-02-23T05:53:19.724Z,53.05
2018-02-23T05:54:10.168Z,57.40
2018-02-23T05:54:59.225Z,56.63
2018-02-23T05:55:48.314Z,55.55
2018-02-23T05:56:37.384Z,59.25
2018-02-23T05:57:26.437Z,62.05
2018-02-23T05:58:15.481Z,62.22
2018-02-23T05:59:04.560Z,65.80
2018-02-23T05:59:53.612Z,65.70
2018-02-23T06:00:42.662Z,62.15
2018-02-23T06:01:31.741Z,64.55
2018-02-23T06:02:20.806Z,69.18
2018-02-23T06:03:09.867Z,71.22
2018-02-23T06:03:58.913Z,67.30
2018-02-23T06:04:47.972Z,63.40
2018-02-23T06:05:37.040Z,61.58
2018-02-23T06:06:26.071Z,63.00
2018-02-23T06:07:15.354Z,61.10
2018-02-23T06:08:04.392Z,69.10
2018-02-23T06:08:53.422Z,62.03
2018-02-23T06:09:42.471Z,57.83
2018-02-23T06:10:31.521Z,60.83
2018-02-23T06:11:20.584Z,56.53
2018-02-23T06:12:09.694Z,53.28
2018-02-23T06:12:59.569Z,55.38
2018-02-23T06:13:48.653Z,54.72
2018-02-23T06:14:37.772Z,55.03
2018-02-23T06:16:47.400Z,57.55
2018-02-23T06:17:41.924Z,65.18
2018-02-23T06:18:36.524Z,73.40
2018-02-23T06:19:31.019Z,88.78
2018-02-23T06:20:25.555Z,96.35
2018-02-23T06:21:14.680Z,100.65
2018-02-23T06:22:03.741Z,97.35
2018-02-23T06:22:52.799Z,113.28
2018-02-23T06:23:41.849Z,111.07
2018-02-23T06:24:30.906Z,98.50
2018-02-23T06:25:19.968Z,112.65
2018-02-23T06:26:09.037Z,109.00
2018-02-23T06:26:58.150Z,100.32
2018-02-23T06:27:47.203Z,94.82
2018-02-23T06:28:36.271Z,88.12
2018-02-23T06:29:25.316Z,90.62
2018-02-23T06:30:14.373Z,81.72
2018-02-23T06:31:03.435Z,84.28
2018-02-23T06:31:52.492Z,86.68
2018-02-23T06:32:41.628Z,67.45
2018-02-23T06:33:30.698Z,62.58
2018-02-23T06:34:19.766Z,61.03
2018-02-23T06:35:08.824Z,61.47
2018-02-23T06:35:57.877Z,60.80
2018-02-23T06:36:46.929Z,60.17
2018-02-23T06:37:35.991Z,59.22
2018-02-23T06:38:25.344Z,59.35
2018-02-23T06:39:14.402Z,58.10
2018-02-23T06:40:03.490Z,58.63
2018-02-23T06:40:52.612Z,57.88
2018-02-23T06:41:41.688Z,54.72
2018-02-23T06:42:30.778Z,50.95
2018-02-23T06:43:19.807Z,53.25
2018-02-23T06:44:08.853Z,45.92
2018-02-23T06:44:57.898Z,40.92
2018-02-23T06:45:46.944Z,40.05
2018-02-23T06:46:36.009Z,42.03
2018-02-23T06:47:25.077Z,69.47
2018-02-23T06:48:14.224Z,66.90
2018-02-23T06:49:03.267Z,66.10
2018-02-23T06:49:52.332Z,75.60
2018-02-23T06:50:41.386Z,68.62
2018-02-23T06:51:30.441Z,65.75
2018-02-23T06:52:19.492Z,58.55
2018-02-23T06:53:08.539Z,64.55
2018-02-23T06:53:57.824Z,70.65
2018-02-23T06:54:46.885Z,63.92
2018-02-23T06:55:35.939Z,59.33
2018-02-23T06:56:24.987Z,58.85
2018-02-23T06:57:14.071Z,58.28
2018-02-23T06:58:03.115Z,61.22
2018-02-23T06:58:52.155Z,63.50
2018-02-23T06:59:41.197Z,65.85
2018-02-23T07:00:30.312Z,63.65
2018-02-23T07:01:19.347Z,64.30
2018-02-23T07:02:08.398Z,66.43
2018-02-23T07:02:57.513Z,69.85
2018-02-23T07:03:46.557Z,70.35
2018-02-23T07:04:35.655Z,66.90
2018-02-23T07:05:24.745Z,71.68
2018-02-23T07:06:13.806Z,68.20
2018-02-23T07:07:02.846Z,66.95
2018-02-23T07:07:51.959Z,82.85
2018-02-23T07:08:41.064Z,75.05
2018-02-23T07:09:30.145Z,86.82
2018-02-23T07:10:19.196Z,74.45
2018-02-23T07:11:08.309Z,71.35
2018-02-23T07:11:57.386Z,72.70
2018-02-23T07:12:46.666Z,62.65
2018-02-23T07:13:35.711Z,61.50
2018-02-23T07:14:24.778Z,50.78
2018-02-23T07:15:13.951Z,64.78
2018-02-23T07:16:03.022Z,48.05
2018-02-23T07:16:52.059Z,45.70
2018-02-23T07:17:41.110Z,48.50
2018-02-23T07:18:30.165Z,117.75
2018-02-23T07:19:20.155Z,43.45
2018-02-23T07:20:09.220Z,28.92
2018-02-23T07:20:58.328Z,27.42
2018-02-23T07:21:47.387Z,29.10
2018-02-23T07:22:36.473Z,36.15
2018-02-23T07:23:25.525Z,35.63
2018-02-23T07:24:14.585Z,33.90
2018-02-23T07:25:03.635Z,37.83
2018-02-23T07:25:52.706Z,41.20
2018-02-23T07:26:41.829Z,38.05
2018-02-23T07:27:30.884Z,52.85
2018-02-23T07:28:19.930Z,43.67
2018-02-23T07:29:08.996Z,46.90
2018-02-23T07:29:58.059Z,55.35
2018-02-23T07:30:47.112Z,45.08
2018-02-23T07:31:36.688Z,50.58
2018-02-23T07:32:25.802Z,145.55
2018-02-23T07:33:14.864Z,136.93
2018-02-23T07:34:03.958Z,155.65
2018-02-23T07:34:53.014Z,140.35
2018-02-23T07:35:42.060Z,71.53
2018-02-23T07:36:31.182Z,78.72
2018-02-23T07:37:20.240Z,69.87
2018-02-23T07:38:09.291Z,64.57
2018-02-23T07:38:58.408Z,57.62
2018-02-23T07:39:47.451Z,55.28
2018-02-23T07:40:36.502Z,41.20
2018-02-23T07:41:25.553Z,73.10
2018-02-23T07:42:14.601Z,58.85
2018-02-23T07:43:03.652Z,35.38
2018-02-23T07:43:52.692Z,26.00
2018-02-23T07:44:41.798Z,31.87
2018-02-23T07:45:30.864Z,24.12
2018-02-23T07:46:21.881Z,139.82
2018-02-23T07:47:10.938Z,69.50
2018-02-23T07:48:00.004Z,33.40
2018-02-23T07:48:49.045Z,35.03
2018-02-23T07:49:38.194Z,42.88
2018-02-23T07:50:27.268Z,41.90
2018-02-23T07:51:16.345Z,29.27
2018-02-23T07:52:05.398Z,25.15
2018-02-23T07:52:54.477Z,51.40
2018-02-23T07:53:43.542Z,115.22
2018-02-23T07:54:32.592Z,182.32
2018-02-23T07:55:21.696Z,143.50
2018-02-23T07:56:10.800Z,148.68
2018-02-23T07:56:59.877Z,183.85
2018-02-23T07:57:48.934Z,156.40
2018-02-23T07:58:38.017Z,171.50
2018-02-23T07:59:27.120Z,93.15
2018-02-23T08:00:16.204Z,107.40
2018-02-23T08:01:06.086Z,85.72
2018-02-23T08:01:55.281Z,51.42
2018-02-23T08:02:44.371Z,72.28
2018-02-23T08:03:33.435Z,60.30
2018-02-23T08:04:22.498Z,67.75
2018-02-23T08:05:11.569Z,43.92
2018-02-23T08:06:00.618Z,52.97
2018-02-23T08:06:49.659Z,48.92
2018-02-23T08:07:38.720Z,54.15
2018-02-23T08:08:27.830Z,42.72
2018-02-23T08:09:16.900Z,43.40
2018-02-23T08:10:05.964Z,41.37
2018-02-23T08:10:55.102Z,40.75
2018-02-23T08:11:44.156Z,29.15
2018-02-23T08:12:33.268Z,43.10
2018-02-23T08:13:22.316Z,36.70
2018-02-23T08:14:11.374Z,45.67
2018-02-23T08:15:00.474Z,38.50
2018-02-23T08:15:49.536Z,33.30
2018-02-23T08:16:38.628Z,36.15
2018-02-23T08:17:27.696Z,33.65
2018-02-23T08:18:16.736Z,47.40
2018-02-23T08:19:05.811Z,53.70
2018-02-23T08:19:54.864Z,46.85
2018-02-23T08:20:43.908Z,41.47
2018-02-23T08:21:32.957Z,43.80
2018-02-23T08:22:25.099Z,54.92
2018-02-23T08:23:14.190Z,43.70
2018-02-23T08:24:03.240Z,41.37
2018-02-23T08:24:52.286Z,40.10
2018-02-23T08:25:41.329Z,45.97
2018-02-23T08:26:30.388Z,52.33
2018-02-23T08:27:19.437Z,41.15
2018-02-23T08:28:10.268Z,51.33
2018-02-23T08:28:59.312Z,34.95
2018-02-23T08:29:48.361Z,43.13
2018-02-23T08:30:37.402Z,38.85
2018-02-23T08:31:26.454Z,40.60
2018-02-23T08:32:15.504Z,44.13
2018-02-23T08:33:04.574Z,47.28
2018-02-23T08:33:53.667Z,46.03
2018-02-23T08:34:42.728Z,55.12
2018-02-23T08:35:31.812Z,39.17
2018-02-23T08:36:20.852Z,43.03
2018-02-23T08:37:09.890Z,47.45
2018-02-23T08:37:58.960Z,50.25
2018-02-23T08:38:48.004Z,42.47
2018-02-23T08:39:37.063Z,49.60
2018-02-23T08:40:26.120Z,34.90
2018-02-23T08:41:15.400Z,35.70
2018-02-23T08:42:04.445Z,30.88
2018-02-23T08:42:53.521Z,45.20
2018-02-23T08:43:42.560Z,46.05
2018-02-23T08:44:31.834Z,61.97
2018-02-23T08:45:20.887Z,63.80
2018-02-23T08:46:09.938Z,49.70
2018-02-23T08:46:58.993Z,39.20
2018-02-23T08:47:48.074Z,36.03
2018-02-23T08:48:37.166Z,49.63
2018-02-23T08:49:26.259Z,52.75
2018-02-23T08:50:15.399Z,36.58
2018-02-23T08:51:04.462Z,57.58
2018-02-23T08:51:53.556Z,68.80
2018-02-23T08:52:42.626Z,57.95
2018-02-23T08:53:31.662Z,38.97
2018-02-23T08:54:20.694Z,86.03
2018-02-23T08:55:09.752Z,45.97
2018-02-23T08:55:58.840Z,25.77
2018-02-23T08:56:47.876Z,36.00
2018-02-23T08:57:36.912Z,37.17
2018-02-23T08:58:25.964Z,32.35
2018-02-23T08:59:15.034Z,32.40
2018-02-23T09:00:04.114Z,25.17
2018-02-23T09:00:53.191Z,21.55
2018-02-23T09:01:42.540Z,25.27
2018-02-23T09:02:31.604Z,21.17
2018-02-23T09:03:20.659Z,16.52
2018-02-23T09:04:09.702Z,18.98
2018-02-23T09:04:58.876Z,18.02
2018-02-23T09:05:47.933Z,20.73
2018-02-23T09:06:36.989Z,21.45
2018-02-23T09:07:26.037Z,25.30
2018-02-23T09:08:15.085Z,20.12
2018-02-23T09:09:04.172Z,22.20
2018-02-23T09:09:53.288Z,18.90
2018-02-23T09:10:42.404Z,16.40
2018-02-23T09:11:31.454Z,18.50
2018-02-23T09:12:20.511Z,18.92
2018-02-23T09:13:09.570Z,20.30
2018-02-23T09:13:58.628Z,20.88
2018-02-23T09:14:47.685Z,19.27
2018-02-23T09:15:36.734Z,16.02
2018-02-23T09:16:25.836Z,17.67
2018-02-23T09:17:15.086Z,18.52
2018-02-23T09:18:04.167Z,15.35
2018-02-23T09:18:53.226Z,13.50
2018-02-23T09:19:42.290Z,15.73
2018-02-23T09:20:31.406Z,15.88
2018-02-23T09:21:20.687Z,21.12
2018-02-23T09:22:09.795Z,18.87
2018-02-23T09:22:58.908Z,20.90
2018-02-23T09:23:47.966Z,29.48
2018-02-23T09:24:37.062Z,26.20
2018-02-23T09:25:26.132Z,30.40
2018-02-23T09:26:15.207Z,28.80
2018-02-23T09:27:04.261Z,46.67
2018-02-23T09:27:53.296Z,25.55
2018-02-23T09:28:42.427Z,18.58
2018-02-23T09:29:31.468Z,18.23
2018-02-23T09:30:20.517Z,17.40
2018-02-23T09:31:09.562Z,23.23
2018-02-23T09:31:58.603Z,18.58
2018-02-23T09:32:47.686Z,18.55
2018-02-23T09:33:48.455Z,17.35
2018-02-23T09:34:38.332Z,15.32
2018-02-23T09:35:27.372Z,17.42
2018-02-23T09:36:16.441Z,18.05
2018-02-23T09:37:05.484Z,18.17
2018-02-23T09:37:54.525Z,17.50
2018-02-23T09:38:43.562Z,19.58
2018-02-23T09:39:32.633Z,18.92
2018-02-23T09:40:21.686Z,19.17
2018-02-23T09:41:10.735Z,17.80
2018-02-23T09:41:59.910Z,18.75
2018-02-23T09:42:49.000Z,33.55
2018-02-23T09:43:38.040Z,45.53
2018-02-23T09:44:27.092Z,30.88
2018-02-23T09:45:16.337Z,67.75
2018-02-23T09:46:05.399Z,45.88
2018-02-23T09:46:54.451Z,26.95
2018-02-23T09:47:43.510Z,23.40
2018-02-23T09:48:32.563Z,24.85
2018-02-23T09:49:21.632Z,20.52
2018-02-23T09:50:10.695Z,18.45
2018-02-23T09:50:59.833Z,15.80
2018-02-23T09:51:48.885Z,22.02
2018-02-23T09:52:37.931Z,44.35
2018-02-23T09:53:26.984Z,49.90
2018-02-23T09:54:16.046Z,55.40
2018-02-23T09:55:05.097Z,37.15
2018-02-23T09:55:54.158Z,23.27
2018-02-23T09:56:43.443Z,28.95
2018-02-23T09:57:32.523Z,23.35
2018-02-23T09:58:21.577Z,20.45
2018-02-23T09:59:10.625Z,21.80
2018-02-23T09:59:59.669Z,26.52
2018-02-23T10:00:48.746Z,33.05
2018-02-23T10:01:37.813Z,34.03
2018-02-23T10:02:26.879Z,24.77
2018-02-23T10:03:16.025Z,26.62
2018-02-23T10:04:05.078Z,31.55
2018-02-23T10:04:54.179Z,23.50
2018-02-23T10:05:43.243Z,21.87
2018-02-23T10:06:32.337Z,22.55
2018-02-23T10:07:21.400Z,22.67
2018-02-23T10:08:10.454Z,20.55
2018-02-23T10:08:59.785Z,19.55
2018-02-23T10:09:48.841Z,23.62
2018-02-23T10:10:37.902Z,25.65
2018-02-23T10:11:26.950Z,26.77
2018-02-23T10:12:15.998Z,25.12
2018-02-23T10:13:05.077Z,15.65
2018-02-23T10:13:54.185Z,15.10
2018-02-23T10:14:43.252Z,22.87
2018-02-23T10:15:32.305Z,28.65
2018-02-23T10:16:21.367Z,21.48
2018-02-23T10:17:10.430Z,19.20
2018-02-23T10:17:59.481Z,27.73
2018-02-23T10:18:48.532Z,22.13
2018-02-23T10:19:37.686Z,24.70
2018-02-23T10:20:26.738Z,22.33
2018-02-23T10:21:15.792Z,23.75
2018-02-23T10:22:04.872Z,16.12
2018-02-23T10:22:53.921Z,20.12
2018-02-23T10:23:42.989Z,21.10
2018-02-23T10:24:32.031Z,20.83
2018-02-23T10:25:21.348Z,23.55
2018-02-23T10:26:10.401Z,25.00
2018-02-23T10:26:59.498Z,36.65
2018-02-23T10:27:48.543Z,35.03
2018-02-23T10:28:37.598Z,29.35
2018-02-23T10:29:26.661Z,27.02
2018-02-23T10:30:15.784Z,24.33
2018-02-23T10:31:04.842Z,24.25
2018-02-23T10:31:53.909Z,22.17
2018-02-23T10:32:42.992Z,34.35
2018-02-23T10:33:32.578Z,24.67
2018-02-23T10:34:21.653Z,26.23
2018-02-23T10:35:10.730Z,27.75
2018-02-23T10:35:59.802Z,26.12